createdAt,value
2023-03-26T00:08:15.433Z,992.95
2023-03-26T00:18:21.305Z,992.99
2023-03-26T00:28:27.048Z,992.86
2023-03-26T00:38:32.478Z,992.89
2023-03-26T00:48:44.922Z,992.83
2023-03-26T00:58:48.819Z,992.73
2023-03-26T01:08:54.676Z,992.71
2023-03-26T01:19:00.310Z,992.63
2023-03-26T01:29:05.792Z,992.72
2023-03-26T01:39:11.209Z,992.66
2023-03-26T01:49:17.289Z,992.66
2023-03-26T01:59:22.913Z,992.58
2023-03-26T02:09:28.899Z,992.49
2023-03-26T02:19:34.790Z,992.49
2023-03-26T02:29:39.971Z,992.40
2023-03-26T02:39:45.902Z,992.37
2023-03-26T02:49:51.770Z,992.29
2023-03-26T02:59:57.195Z,992.21
2023-03-26T03:10:02.914Z,992.17
2023-03-26T03:20:08.334Z,992.23
2023-03-26T03:30:13.725Z,992.29
2023-03-26T03:40:19.052Z,992.25
2023-03-26T03:50:24.476Z,992.22
2023-03-26T04:00:29.938Z,992.11
2023-03-26T04:10:36.208Z,992.13
2023-03-26T04:20:42.465Z,992.26
2023-03-26T04:30:48.294Z,992.24
2023-03-26T04:40:54.730Z,992.21
2023-03-26T04:51:01.066Z,992.08
2023-03-26T05:01:09.909Z,992.15
2023-03-26T05:11:16.283Z,992.07
2023-03-26T05:21:22.269Z,992.03
2023-03-26T05:31:28.075Z,992.00
2023-03-26T05:41:34.565Z,991.91
2023-03-26T05:51:40.737Z,991.79
2023-03-26T06:01:46.907Z,991.78
2023-03-26T06:11:52.551Z,991.92
2023-03-26T06:21:53.702Z,991.87
2023-03-26T06:32:12.486Z,991.71
2023-03-26T06:42:15.350Z,991.56
2023-03-26T06:52:21.795Z,991.52
2023-03-26T07:02:28.389Z,991.45
2023-03-26T07:12:34.364Z,991.35
2023-03-26T07:22:39.861Z,991.22
2023-03-26T07:32:48.578Z,991.04
2023-03-26T07:42:54.577Z,990.89
2023-03-26T07:53:02.715Z,990.84
2023-03-26T08:03:08.608Z,990.75
2023-03-26T08:13:14.825Z,990.56
2023-03-26T08:23:21.684Z,990.44
2023-03-26T08:33:28.030Z,990.41
2023-03-26T08:43:34.206Z,990.36
2023-03-26T08:53:39.772Z,990.29
2023-03-26T09:03:45.733Z,990.12
2023-03-26T09:13:51.889Z,989.99
2023-03-26T09:23:58.224Z,989.86
2023-03-26T09:34:04.146Z,989.78
2023-03-26T09:44:10.912Z,989.68
2023-03-26T09:54:17.058Z,989.62
2023-03-26T10:04:23.480Z,989.47
2023-03-26T10:14:30.368Z,989.42
2023-03-26T10:24:36.615Z,989.30
2023-03-26T10:34:43.357Z,989.21
2023-03-26T10:44:49.504Z,989.19
2023-03-26T10:54:56.109Z,989.21
2023-03-26T11:05:02.195Z,989.25
2023-03-26T11:15:08.718Z,989.24
2023-03-26T11:25:14.798Z,989.19
2023-03-26T11:35:39.864Z,989.19
2023-03-26T11:45:32.803Z,989.14
2023-03-26T11:55:39.427Z,989.13
2023-03-26T12:05:45.525Z,989.15
2023-03-26T12:15:51.945Z,989.05
2023-03-26T12:25:58.189Z,988.94
2023-03-26T12:36:04.338Z,988.98
2023-03-26T12:47:55.182Z,988.96
2023-03-26T12:56:22.155Z,988.95
2023-03-26T13:06:28.442Z,988.89
2023-03-26T13:16:35.004Z,988.80
2023-03-26T13:26:41.815Z,988.66
2023-03-26T13:36:49.245Z,988.46
2023-03-26T13:46:56.838Z,988.31
2023-03-26T13:57:03.103Z,988.21
2023-03-26T14:07:09.397Z,988.14
2023-03-26T14:17:15.692Z,987.98
2023-03-26T14:27:21.673Z,987.88
2023-03-26T14:37:28.472Z,987.70
2023-03-26T14:47:35.198Z,987.68
2023-03-26T14:57:41.844Z,987.60
2023-03-26T15:07:47.930Z,987.42
2023-03-26T15:17:54.217Z,987.27
2023-03-26T15:28:00.194Z,987.23
2023-03-26T15:38:06.362Z,987.02
2023-03-26T15:48:12.655Z,986.91
2023-03-26T15:58:18.839Z,986.89
2023-03-26T16:08:25.031Z,986.79
2023-03-26T16:18:31.208Z,986.77
2023-03-26T16:28:37.353Z,986.82
2023-03-26T16:38:43.259Z,986.86
2023-03-26T16:48:49.391Z,986.90
2023-03-26T16:58:55.801Z,987.01
2023-03-26T17:09:02.167Z,987.04
2023-03-26T17:19:08.472Z,987.07
2023-03-26T17:29:14.028Z,987.07
2023-03-26T17:39:20.384Z,987.07
2023-03-26T17:49:26.376Z,987.11
2023-03-26T17:59:32.524Z,987.15
2023-03-26T18:09:38.512Z,987.21
2023-03-26T18:19:44.516Z,987.24
2023-03-26T18:29:50.534Z,987.29
2023-03-26T18:39:56.473Z,987.34
2023-03-26T18:50:03.872Z,987.33
2023-03-26T19:00:09.896Z,987.37
2023-03-26T19:10:15.753Z,987.49
2023-03-26T19:20:22.020Z,987.54
2023-03-26T19:30:27.299Z,987.50
2023-03-26T19:40:33.193Z,987.45
2023-03-26T19:50:40.434Z,987.48
2023-03-26T20:00:46.158Z,987.31
2023-03-26T20:10:51.989Z,987.30
2023-03-26T20:20:58.374Z,987.33
2023-03-26T20:31:04.635Z,987.33
2023-03-26T20:41:10.472Z,987.38
2023-03-26T20:51:16.184Z,987.43
2023-03-26T21:01:23.512Z,987.48
2023-03-26T21:11:29.830Z,987.53
2023-03-26T21:21:35.778Z,987.64
2023-03-26T21:31:43.916Z,987.70
2023-03-26T21:42:04.343Z,987.87
2023-03-26T21:52:01.056Z,987.96
2023-03-26T22:02:07.381Z,988.04
2023-03-26T22:12:13.812Z,988.16
2023-03-26T22:22:20.081Z,988.30
2023-03-26T22:32:26.076Z,988.42
2023-03-26T22:42:37.277Z,988.65
2023-03-26T22:52:43.134Z,988.93
2023-03-26T23:02:48.687Z,989.16
2023-03-26T23:12:54.369Z,989.47
2023-03-26T23:22:59.691Z,989.69
2023-03-26T23:33:05.509Z,989.92
2023-03-26T23:43:10.966Z,990.12
2023-03-26T23:53:16.981Z,990.25
